Ana Sayfa
METAR-TAF:

METAR-TAF

Havaalanları :

Hanoi, Vietnam

Enlem: 21-01N, Boylam: 105-48E, yükseklik: 6 m

Güncel hava durumu gözlemi

Rapor saat 03:00 UTC de 42 dakika önce yapıldı.
Rüzgar doğudan 5 kt
Sıcaklık 24°C
Nem 74%
Basınç 1018 hPa
Görüş mesafesi: 7000 m
1700 ft yükseklikte parçalı bulutlu
4900 ft yükseklikte parçalı çok bulutlu

METAR: VVNB 280300Z 10005KT 7000 SCT017 BKN049 24/19 Q1018 NOSIG

Saat: 10:42 (03:42 UTC)

Tahmin

Rapor saat 23:00 UTC de 4 saat ve 42 dakika önce yapıldı.
Ayın 28'si saat 00 UTC'den ayın 28'si saat 24 UTC'ye kadar geçerli Tahmin
Rüzgar doğu/güneydoğudan 8 kt
Görüş mesafesi: 4000 m
2700 ft yükseklikte parçalı bulutlu
Pus
Dönüşüyor
ayın 28'si saat 01 UTC'den ayın 28'si saat 02 UTC'ye kadar
Görüş mesafesi: 8000 m
Dönüşüyor
ayın 28'si saat 16 UTC'den ayın 28'si saat 18 UTC'ye kadar
Görüş mesafesi: 4000 m
Pus

TAF: VVNB 272300Z 2800/2824 12008KT 4000 BR SCT027 BECMG 2801/2802 8000 NSW BECMG 2816/2818 4000 BR

4.000'den fazla havaalanı için hava durumu gözlemleri ve tahminleri (METAR ve TAF raporları).

Kullanılabilir istasyonlar harita üzerinde sarı ve kırmızı noktalarla gösterilir.

İstasyonun adını görmek için fareyi noktanın üzerinde gezdirin.

Sonrasında hava gözlem ve tahminlerini görmek için tıklayın.

Haritayı değiştirmek için: yaklaştırmak için siyah artı işaretli yeşil düğmeye ve uzaklaştırmak için de eksi işaretli düğmeye hızla tıklayın; bitişik haritalar için yeşil okları kullanın.


METAR-TAF: